You are listening to:
KWVI CTAF/NORCAL App - Watsonville, California, United States

KWVI 010718Z AUTO 05003KT 10SM FEW008 11/10 A3005 RMK AO2 T01110100

If stream doesn't start automatically press the play button
If stream stops then reload player then press play